Fuji Maru — JD2030 — position and weather

sailwx.info

Track history (hours):
 
Tides and Currents Weather Stations Pressure Air Temp Water Temp Dewpoint Dewpoint Depression Visibility Wind Speed Wind Dir Waves Ship Positions

Fuji Maru

Last reported at 2016-Feb-12 11:33 UTC. Time now 2016-Feb-12 12:12 UTC.
Position N 35°39' E 139°46'.

Length 38 m; draft 4.4 m.

Type: Tug. MMSI: 431001102.

Date/timePositionNaut miles runAvg speedWind from/ knotsBaromVisibWave heightAir tempDewpointWater temp
2016-Feb-12 11:33N 35°39' E 139°46'0 0.0
2016-Feb-12 10:33N 35°39' E 139°46'0 0.1
2016-Feb-12 09:33N 35°39' E 139°46'0 0.1
2016-Feb-12 08:33N 35°39' E 139°46'0 0.0
2016-Feb-12 07:33N 35°39' E 139°46'0 0.0
2016-Feb-12 06:33N 35°39' E 139°46'0 0.0
2016-Feb-12 05:33N 35°39' E 139°46'0 0.0
2016-Feb-12 04:33N 35°39' E 139°46'0 0.0
2016-Feb-12 03:33N 35°39' E 139°46'0 0.0
2016-Feb-12 02:33N 35°39' E 139°46'0 0.0
2016-Feb-12 01:33N 35°39' E 139°46'0 0.0
2016-Feb-12 00:33N 35°39' E 139°46'0 0.0
2016-Feb-11 23:33N 35°39' E 139°46'0 0.0
2016-Feb-11 22:27N 35°39' E 139°46'0 0.0
2016-Feb-11 21:33N 35°39' E 139°46'0 0.0
2016-Feb-11 20:33N 35°39' E 139°46'0 0.0
2016-Feb-11 19:33N 35°39' E 139°46'2 2.4
2016-Feb-11 18:34N 35°37' E 139°46'2 1.6
2016-Feb-11 17:33N 35°38' E 139°46'0 0.0
2016-Feb-11 16:24N 35°38' E 139°46'0 0.0
2016-Feb-11 15:30N 35°38' E 139°46'0 0.0
2016-Feb-11 14:33N 35°38' E 139°46'0 0.0
2016-Feb-11 13:30N 35°38' E 139°46'0 0.0
2016-Feb-11 12:33N 35°38' E 139°46'2 2.3
2016-Feb-11 11:33N 35°36' E 139°47'3 2.7
2016-Feb-11 10:32N 35°34' E 139°49'3 3.1
2016-Feb-11 09:33N 35°36' E 139°46'3 2.9
2016-Feb-11 08:31N 35°34' E 139°49'3 3.2
2016-Feb-11 07:33N 35°37' E 139°47'2 2.2
2016-Feb-11 06:28N 35°39' E 139°46'0 0.0
2016-Feb-11 05:31N 35°39' E 139°46'0 0.0
2016-Feb-11 04:31N 35°39' E 139°46'0 0.0
2016-Feb-11 03:31N 35°39' E 139°46'0 0.0
2016-Feb-11 02:31N 35°39' E 139°46'0 0.0
2016-Feb-11 01:28N 35°39' E 139°46'0 0.0
2016-Feb-11 00:31N 35°39' E 139°46'0 0.0
2016-Feb-10 23:31N 35°39' E 139°46'0 0.0
2016-Feb-10 22:31N 35°39' E 139°46'0 0.0
2016-Feb-10 21:31N 35°39' E 139°46'0 0.0
2016-Feb-10 20:28N 35°39' E 139°46'0 0.0
2016-Feb-10 19:31N 35°39' E 139°46'0 0.0
2016-Feb-10 18:28N 35°39' E 139°46'0 0.0
2016-Feb-10 17:31N 35°39' E 139°46'0 0.0
2016-Feb-10 16:31N 35°39' E 139°46'0 0.0
2016-Feb-10 15:22N 35°39' E 139°46'0 0.0
2016-Feb-10 14:33N 35°39' E 139°46'3 3.0
2016-Feb-10 13:32N 35°36' E 139°48'1 0.6
2016-Feb-10 12:32N 35°36' E 139°47'0 0.2
2016-Feb-10 11:33N 35°37' E 139°47'0 0.0
2016-Feb-10 10:33N 35°37' E 139°47'0 0.1
2016-Feb-10 09:31N 35°36' E 139°47'1 1.2
2016-Feb-10 08:34N 35°35' E 139°47'2 1.8
2016-Feb-10 07:33N 35°37' E 139°46'2 2.0
2016-Feb-10 06:32N 35°39' E 139°46'0 0.0
2016-Feb-10 05:32N 35°39' E 139°46'0 0.0
2016-Feb-10 04:29N 35°39' E 139°46'0 0.0
2016-Feb-10 03:23N 35°39' E 139°46'0 0.0
2016-Feb-10 02:32N 35°39' E 139°46'0 0.0
2016-Feb-10 01:17N 35°39' E 139°46'0 0.0
2016-Feb-10 00:32N 35°39' E 139°46'0 0.0
2016-Feb-09 23:23N 35°39' E 139°46'3 3.5
2016-Feb-09 22:30N 35°36' E 139°47'2 1.7
2016-Feb-09 21:34N 35°35' E 139°48'4 4.2
2016-Feb-09 20:30N 35°39' E 139°46'0 0.0
2016-Feb-09 19:33N 35°39' E 139°46'0 0.0
2016-Feb-09 18:30N 35°39' E 139°46'0 0.0
2016-Feb-09 17:33N 35°39' E 139°46'0 0.0
2016-Feb-09 16:30N 35°39' E 139°46'0 0.0
2016-Feb-09 15:30N 35°39' E 139°46'0 0.0
2016-Feb-09 14:30N 35°39' E 139°46'0 0.0
2016-Feb-09 13:30N 35°39' E 139°46'0 0.0
2016-Feb-09 12:24N 35°39' E 139°46'0 0.0
2016-Feb-09 11:33N 35°39' E 139°46'0 0.0
2016-Feb-09 10:33N 35°39' E 139°46'0 0.0
2016-Feb-09 09:27N 35°39' E 139°46'0 0.0
2016-Feb-09 07:24N 35°39' E 139°46'0 0.0
2016-Feb-09 06:33N 35°39' E 139°46'0 0.0
2016-Feb-09 05:33N 35°39' E 139°46'0 0.0
2016-Feb-09 04:27N 35°39' E 139°46'0 0.0
2016-Feb-09 03:33N 35°39' E 139°46'0 0.0
2016-Feb-09 02:33N 35°39' E 139°46'0 0.0
2016-Feb-09 01:24N 35°39' E 139°46'0 0.0
2016-Feb-09 00:27N 35°39' E 139°46'0 0.0
2016-Feb-08 23:27N 35°39' E 139°46'2 1.5
2016-Feb-08 22:25N 35°37' E 139°46'5 5.6
2016-Feb-08 21:33N 35°34' E 139°50'4 3.5
2016-Feb-08 20:32N 35°36' E 139°46'2 2.0
2016-Feb-08 19:33N 35°38' E 139°46'0 0.0
2016-Feb-08 18:33N 35°38' E 139°46'1 0.7
2016-Feb-08 17:31N 35°39' E 139°46'0 0.0
2016-Feb-08 16:25N 35°39' E 139°46'0 0.0
2016-Feb-08 15:31N 35°39' E 139°46'0 0.0
2016-Feb-08 14:31N 35°39' E 139°46'0 0.0
2016-Feb-08 13:31N 35°39' E 139°46'0 0.0
2016-Feb-08 12:28N 35°39' E 139°46'0 0.0
2016-Feb-08 11:31N 35°39' E 139°46'0 0.0
2016-Feb-08 10:31N 35°39' E 139°46'0 0.0
2016-Feb-08 09:31N 35°39' E 139°46'0 0.0
2016-Feb-08 08:25N 35°39' E 139°46'0 0.0
2016-Feb-08 07:31N 35°39' E 139°46'0 0.0
2016-Feb-08 06:31N 35°39' E 139°46'0 0.0
2016-Feb-08 05:31N 35°39' E 139°46'0 0.0
2016-Feb-08 04:31N 35°39' E 139°46'3 2.9
2016-Feb-08 03:31N 35°36' E 139°47'0 0.4
2016-Feb-08 02:33N 35°36' E 139°47'3 2.9
2016-Feb-08 01:33N 35°39' E 139°46'0 0.0
2016-Feb-08 00:30N 35°39' E 139°46'0 0.0
2016-Feb-07 23:33N 35°39' E 139°46'0 0.0
2016-Feb-07 22:33N 35°39' E 139°46'0 0.0
2016-Feb-07 21:30N 35°39' E 139°46'0 0.0
2016-Feb-07 20:33N 35°39' E 139°46'0 0.0
2016-Feb-07 19:33N 35°39' E 139°46'0 0.0
2016-Feb-07 18:33N 35°39' E 139°46'0 0.0
2016-Feb-07 17:33N 35°39' E 139°46'0 0.0
2016-Feb-07 16:33N 35°39' E 139°46'0 0.0
2016-Feb-07 15:33N 35°39' E 139°46'0 0.0
2016-Feb-07 14:33N 35°39' E 139°46'0 0.0
2016-Feb-07 13:33N 35°39' E 139°46'0 0.0
2016-Feb-07 12:33N 35°39' E 139°46'0 0.0
2016-Feb-07 11:30N 35°39' E 139°46'0 0.0
2016-Feb-07 10:33N 35°39' E 139°46'0 0.0
2016-Feb-07 09:33N 35°39' E 139°46'0 0.0
2016-Feb-07 08:33N 35°39' E 139°46'0 0.0
2016-Feb-07 07:33N 35°39' E 139°46'0 0.0
2016-Feb-07 06:33N 35°39' E 139°46'0 0.0
2016-Feb-07 05:33N 35°39' E 139°46'0 0.0
2016-Feb-07 04:33N 35°39' E 139°46'0 0.0
2016-Feb-07 03:33N 35°39' E 139°46'0 0.0
2016-Feb-07 02:30N 35°39' E 139°46'0 0.0
2016-Feb-07 01:33N 35°39' E 139°46'0 0.0
2016-Feb-07 00:33N 35°39' E 139°46'0 0.0
2016-Feb-06 23:30N 35°39' E 139°46'3 2.8
2016-Feb-06 22:32N 35°36' E 139°47'3 2.6
2016-Feb-06 21:33N 35°34' E 139°49'4 4.1
2016-Feb-06 20:33N 35°38' E 139°46'1 1.2
2016-Feb-06 19:33N 35°39' E 139°46'0 0.0
2016-Feb-06 18:33N 35°39' E 139°46'0 0.0
2016-Feb-06 17:27N 35°39' E 139°46'0 0.0
2016-Feb-06 16:33N 35°39' E 139°46'0 0.0
2016-Feb-06 15:33N 35°39' E 139°46'0 0.0
2016-Feb-06 14:33N 35°39' E 139°46'0 0.0
2016-Feb-06 13:27N 35°39' E 139°46'0 0.0
2016-Feb-06 12:33N 35°39' E 139°46'0 0.0
2016-Feb-06 11:33N 35°39' E 139°46'0 0.0
2016-Feb-06 10:33N 35°39' E 139°46'0 0.0
2016-Feb-06 09:30N 35°39' E 139°46'0 0.0
2016-Feb-06 08:33N 35°39' E 139°46'3 3.1
2016-Feb-06 07:33N 35°36' E 139°46'3 3.0
2016-Feb-06 06:33N 35°39' E 139°46'0 0.0
2016-Feb-06 05:18N 35°39' E 139°46'0 0.0
2016-Feb-06 04:30N 35°39' E 139°46'0 0.0
2016-Feb-06 03:21N 35°39' E 139°46'2 2.3
2016-Feb-06 02:33N 35°37' E 139°46'1 1.3
2016-Feb-06 01:33N 35°36' E 139°47'1 1.3
2016-Feb-06 00:33N 35°37' E 139°46'2 1.7
2016-Feb-05 23:28N 35°39' E 139°46'0 0.0
2016-Feb-05 22:25N 35°39' E 139°46'0 0.0
2016-Feb-05 21:28N 35°39' E 139°46'0 0.0
2016-Feb-05 20:31N 35°39' E 139°46'0 0.0
2016-Feb-05 19:28N 35°39' E 139°46'0 0.0
2016-Feb-05 18:22N 35°39' E 139°46'0 0.0
2016-Feb-05 17:28N 35°39' E 139°46'0 0.0
2016-Feb-05 16:31N 35°39' E 139°46'0 0.0
2016-Feb-05 15:25N 35°39' E 139°46'0 0.0
2016-Feb-05 14:31N 35°39' E 139°46'0 0.0
2016-Feb-05 13:31N 35°39' E 139°46'2 2.5
2016-Feb-05 12:33N 35°36' E 139°47'1 1.0
2016-Feb-05 11:33N 35°36' E 139°48'0 0.0
2016-Feb-05 10:27N 35°36' E 139°48'0 0.0
2016-Feb-05 09:33N 35°36' E 139°48'1 1.4
2016-Feb-05 08:33N 35°36' E 139°46'1 0.8
2016-Feb-05 07:33N 35°36' E 139°47'3 2.8
2016-Feb-05 06:33N 35°39' E 139°46'0 0.0
2016-Feb-05 05:33N 35°39' E 139°46'0 0.0
2016-Feb-05 04:31N 35°39' E 139°46'0 0.0
2016-Feb-05 03:31N 35°39' E 139°46'0 0.0
2016-Feb-05 02:25N 35°39' E 139°46'0 0.0
2016-Feb-05 01:31N 35°39' E 139°46'0 0.0
2016-Feb-05 00:31N 35°39' E 139°46'0 0.0
2016-Feb-04 23:31N 35°39' E 139°46'0 0.0
2016-Feb-04 22:31N 35°39' E 139°46'0 0.0
2016-Feb-04 21:28N 35°39' E 139°46'0 0.0
2016-Feb-04 20:31N 35°39' E 139°46'0 0.0
2016-Feb-04 19:31N 35°39' E 139°46'0 0.0
2016-Feb-04 18:31N 35°39' E 139°46'0 0.0
2016-Feb-04 17:31N 35°39' E 139°46'0 0.0
2016-Feb-04 16:31N 35°39' E 139°46'0 0.0
2016-Feb-04 15:31N 35°39' E 139°46'0 0.0
2016-Feb-04 14:31N 35°39' E 139°46'0 0.0
2016-Feb-04 13:31N 35°39' E 139°46'0 0.0
2016-Feb-04 12:19N 35°39' E 139°46'0 0.0
2016-Feb-04 11:31N 35°39' E 139°46'0 0.0
2016-Feb-04 10:31N 35°39' E 139°46'2 1.7
2016-Feb-04 09:33N 35°37' E 139°46'3 3.4
2016-Feb-04 08:33N 35°35' E 139°48'5 4.4
2016-Feb-04 07:29N 35°39' E 139°46'0 0.0
2016-Feb-04 06:32N 35°39' E 139°46'0 0.0
2016-Feb-04 05:26N 35°39' E 139°46'0 0.0
2016-Feb-04 04:32N 35°39' E 139°46'2 2.2
2016-Feb-04 03:32N 35°37' E 139°46'0 0.1
2016-Feb-04 02:33N 35°37' E 139°46'0 0.4
2016-Feb-04 01:33N 35°37' E 139°46'2 1.8
2016-Feb-04 00:29N 35°39' E 139°46'0 0.0
2016-Feb-03 23:29N 35°39' E 139°46'0 0.0
2016-Feb-03 22:29N 35°39' E 139°46'0 0.0
2016-Feb-03 21:32N 35°39' E 139°46'0 0.0
2016-Feb-03 20:32N 35°39' E 139°46'0 0.0
2016-Feb-03 19:32N 35°39' E 139°46'0 0.0
2016-Feb-03 18:32N 35°39' E 139°46'0 0.0
2016-Feb-03 17:32N 35°39' E 139°46'0 0.0
2016-Feb-03 16:32N 35°39' E 139°46'0 0.0
2016-Feb-03 15:32N 35°39' E 139°46'0 0.0
2016-Feb-03 14:23N 35°39' E 139°46'0 0.0
2016-Feb-03 13:29N 35°39' E 139°46'0 0.0
2016-Feb-03 12:29N 35°39' E 139°46'0 0.0
2016-Feb-03 11:32N 35°39' E 139°46'0 0.0
2016-Feb-03 10:32N 35°39' E 139°46'0 0.0
2016-Feb-03 09:29N 35°39' E 139°46'0 0.0
2016-Feb-03 08:29N 35°39' E 139°46'0 0.0
2016-Feb-03 07:32N 35°39' E 139°46'0 0.0
2016-Feb-03 06:29N 35°39' E 139°46'0 0.0
2016-Feb-03 05:29N 35°39' E 139°46'0 0.0
2016-Feb-03 04:05N 35°39' E 139°46'0 0.0
2016-Feb-03 03:32N 35°39' E 139°46'0 0.0
2016-Feb-03 02:29N 35°39' E 139°46'0 0.0
2016-Feb-03 01:32N 35°39' E 139°46'0 0.0
2016-Feb-03 00:32N 35°39' E 139°46'0 0.0
2016-Feb-02 23:33N 35°39' E 139°46'4 4.3
2016-Feb-02 22:33N 35°35' E 139°48'1 1.1
2016-Feb-02 21:31N 35°35' E 139°47'1 1.4
2016-Feb-02 20:33N 35°37' E 139°46'2 1.5
2016-Feb-02 19:33N 35°38' E 139°46'1 1.0
2016-Feb-02 18:33N 35°37' E 139°46'2 1.6
2016-Feb-02 17:28N 35°39' E 139°46'0 0.0
2016-Feb-02 16:25N 35°39' E 139°46'0 0.0
2016-Feb-02 15:31N 35°39' E 139°46'0 0.0
2016-Feb-02 14:31N 35°39' E 139°46'0 0.0
2016-Feb-02 13:31N 35°39' E 139°46'0 0.0
2016-Feb-02 12:31N 35°39' E 139°46'  
Track history (hours):
 
Tides and Currents Weather Stations Pressure Air Temp Water Temp Dewpoint Dewpoint Depression Visibility Wind Speed Wind Dir Waves Ship Positions

Fuji Maru

Last reported at 2016-Feb-12 11:33 UTC. Time now 2016-Feb-12 12:12 UTC.
Position N 35°39' E 139°46'.

Length 38 m; draft 4.4 m.

Type: Tug. MMSI: 431001102.

Date/timePositionNaut miles runAvg speedWind from/ knotsBaromVisibWave heightAir tempDewpointWater temp
2016-Feb-12 11:33N 35°39' E 139°46'0 0.0
2016-Feb-12 10:33N 35°39' E 139°46'0 0.1
2016-Feb-12 09:33N 35°39' E 139°46'0 0.1
2016-Feb-12 08:33N 35°39' E 139°46'0 0.0
2016-Feb-12 07:33N 35°39' E 139°46'0 0.0
2016-Feb-12 06:33N 35°39' E 139°46'0 0.0
2016-Feb-12 05:33N 35°39' E 139°46'0 0.0
2016-Feb-12 04:33N 35°39' E 139°46'0 0.0
2016-Feb-12 03:33N 35°39' E 139°46'0 0.0
2016-Feb-12 02:33N 35°39' E 139°46'0 0.0
2016-Feb-12 01:33N 35°39' E 139°46'0 0.0
2016-Feb-12 00:33N 35°39' E 139°46'0 0.0
2016-Feb-11 23:33N 35°39' E 139°46'0 0.0
2016-Feb-11 22:27N 35°39' E 139°46'0 0.0
2016-Feb-11 21:33N 35°39' E 139°46'0 0.0
2016-Feb-11 20:33N 35°39' E 139°46'0 0.0
2016-Feb-11 19:33N 35°39' E 139°46'2 2.4
2016-Feb-11 18:34N 35°37' E 139°46'2 1.6
2016-Feb-11 17:33N 35°38' E 139°46'0 0.0
2016-Feb-11 16:24N 35°38' E 139°46'0 0.0
2016-Feb-11 15:30N 35°38' E 139°46'0 0.0
2016-Feb-11 14:33N 35°38' E 139°46'0 0.0
2016-Feb-11 13:30N 35°38' E 139°46'0 0.0
2016-Feb-11 12:33N 35°38' E 139°46'2 2.3
2016-Feb-11 11:33N 35°36' E 139°47'3 2.7
2016-Feb-11 10:32N 35°34' E 139°49'3 3.1
2016-Feb-11 09:33N 35°36' E 139°46'3 2.9
2016-Feb-11 08:31N 35°34' E 139°49'3 3.2
2016-Feb-11 07:33N 35°37' E 139°47'2 2.2
2016-Feb-11 06:28N 35°39' E 139°46'0 0.0
2016-Feb-11 05:31N 35°39' E 139°46'0 0.0
2016-Feb-11 04:31N 35°39' E 139°46'0 0.0
2016-Feb-11 03:31N 35°39' E 139°46'0 0.0
2016-Feb-11 02:31N 35°39' E 139°46'0 0.0
2016-Feb-11 01:28N 35°39' E 139°46'0 0.0
2016-Feb-11 00:31N 35°39' E 139°46'0 0.0
2016-Feb-10 23:31N 35°39' E 139°46'0 0.0
2016-Feb-10 22:31N 35°39' E 139°46'0 0.0
2016-Feb-10 21:31N 35°39' E 139°46'0 0.0
2016-Feb-10 20:28N 35°39' E 139°46'0 0.0
2016-Feb-10 19:31N 35°39' E 139°46'0 0.0
2016-Feb-10 18:28N 35°39' E 139°46'0 0.0
2016-Feb-10 17:31N 35°39' E 139°46'0 0.0
2016-Feb-10 16:31N 35°39' E 139°46'0 0.0
2016-Feb-10 15:22N 35°39' E 139°46'0 0.0
2016-Feb-10 14:33N 35°39' E 139°46'3 3.0
2016-Feb-10 13:32N 35°36' E 139°48'1 0.6
2016-Feb-10 12:32N 35°36' E 139°47'0 0.2
2016-Feb-10 11:33N 35°37' E 139°47'0 0.0
2016-Feb-10 10:33N 35°37' E 139°47'0 0.1
2016-Feb-10 09:31N 35°36' E 139°47'1 1.2
2016-Feb-10 08:34N 35°35' E 139°47'2 1.8
2016-Feb-10 07:33N 35°37' E 139°46'2 2.0
2016-Feb-10 06:32N 35°39' E 139°46'0 0.0
2016-Feb-10 05:32N 35°39' E 139°46'0 0.0
2016-Feb-10 04:29N 35°39' E 139°46'0 0.0
2016-Feb-10 03:23N 35°39' E 139°46'0 0.0
2016-Feb-10 02:32N 35°39' E 139°46'0 0.0
2016-Feb-10 01:17N 35°39' E 139°46'0 0.0
2016-Feb-10 00:32N 35°39' E 139°46'0 0.0
2016-Feb-09 23:23N 35°39' E 139°46'3 3.5
2016-Feb-09 22:30N 35°36' E 139°47'2 1.7
2016-Feb-09 21:34N 35°35' E 139°48'4 4.2
2016-Feb-09 20:30N 35°39' E 139°46'0 0.0
2016-Feb-09 19:33N 35°39' E 139°46'0 0.0
2016-Feb-09 18:30N 35°39' E 139°46'0 0.0
2016-Feb-09 17:33N 35°39' E 139°46'0 0.0
2016-Feb-09 16:30N 35°39' E 139°46'0 0.0
2016-Feb-09 15:30N 35°39' E 139°46'0 0.0
2016-Feb-09 14:30N 35°39' E 139°46'0 0.0
2016-Feb-09 13:30N 35°39' E 139°46'0 0.0
2016-Feb-09 12:24N 35°39' E 139°46'0 0.0
2016-Feb-09 11:33N 35°39' E 139°46'0 0.0
2016-Feb-09 10:33N 35°39' E 139°46'0 0.0
2016-Feb-09 09:27N 35°39' E 139°46'0 0.0
2016-Feb-09 07:24N 35°39' E 139°46'0 0.0
2016-Feb-09 06:33N 35°39' E 139°46'0 0.0
2016-Feb-09 05:33N 35°39' E 139°46'0 0.0
2016-Feb-09 04:27N 35°39' E 139°46'0 0.0
2016-Feb-09 03:33N 35°39' E 139°46'0 0.0
2016-Feb-09 02:33N 35°39' E 139°46'0 0.0
2016-Feb-09 01:24N 35°39' E 139°46'0 0.0
2016-Feb-09 00:27N 35°39' E 139°46'0 0.0
2016-Feb-08 23:27N 35°39' E 139°46'2 1.5
2016-Feb-08 22:25N 35°37' E 139°46'5 5.6
2016-Feb-08 21:33N 35°34' E 139°50'4 3.5
2016-Feb-08 20:32N 35°36' E 139°46'2 2.0
2016-Feb-08 19:33N 35°38' E 139°46'0 0.0
2016-Feb-08 18:33N 35°38' E 139°46'1 0.7
2016-Feb-08 17:31N 35°39' E 139°46'0 0.0
2016-Feb-08 16:25N 35°39' E 139°46'0 0.0
2016-Feb-08 15:31N 35°39' E 139°46'0 0.0
2016-Feb-08 14:31N 35°39' E 139°46'0 0.0
2016-Feb-08 13:31N 35°39' E 139°46'0 0.0
2016-Feb-08 12:28N 35°39' E 139°46'0 0.0
2016-Feb-08 11:31N 35°39' E 139°46'0 0.0
2016-Feb-08 10:31N 35°39' E 139°46'0 0.0
2016-Feb-08 09:31N 35°39' E 139°46'0 0.0
2016-Feb-08 08:25N 35°39' E 139°46'0 0.0
2016-Feb-08 07:31N 35°39' E 139°46'0 0.0
2016-Feb-08 06:31N 35°39' E 139°46'0 0.0
2016-Feb-08 05:31N 35°39' E 139°46'0 0.0
2016-Feb-08 04:31N 35°39' E 139°46'3 2.9
2016-Feb-08 03:31N 35°36' E 139°47'0 0.4
2016-Feb-08 02:33N 35°36' E 139°47'3 2.9
2016-Feb-08 01:33N 35°39' E 139°46'0 0.0
2016-Feb-08 00:30N 35°39' E 139°46'0 0.0
2016-Feb-07 23:33N 35°39' E 139°46'0 0.0
2016-Feb-07 22:33N 35°39' E 139°46'0 0.0
2016-Feb-07 21:30N 35°39' E 139°46'0 0.0
2016-Feb-07 20:33N 35°39' E 139°46'0 0.0
2016-Feb-07 19:33N 35°39' E 139°46'0 0.0
2016-Feb-07 18:33N 35°39' E 139°46'0 0.0
2016-Feb-07 17:33N 35°39' E 139°46'0 0.0
2016-Feb-07 16:33N 35°39' E 139°46'0 0.0
2016-Feb-07 15:33N 35°39' E 139°46'0 0.0
2016-Feb-07 14:33N 35°39' E 139°46'0 0.0
2016-Feb-07 13:33N 35°39' E 139°46'0 0.0
2016-Feb-07 12:33N 35°39' E 139°46'0 0.0
2016-Feb-07 11:30N 35°39' E 139°46'0 0.0
2016-Feb-07 10:33N 35°39' E 139°46'0 0.0
2016-Feb-07 09:33N 35°39' E 139°46'0 0.0
2016-Feb-07 08:33N 35°39' E 139°46'0 0.0
2016-Feb-07 07:33N 35°39' E 139°46'0 0.0
2016-Feb-07 06:33N 35°39' E 139°46'0 0.0
2016-Feb-07 05:33N 35°39' E 139°46'0 0.0
2016-Feb-07 04:33N 35°39' E 139°46'0 0.0
2016-Feb-07 03:33N 35°39' E 139°46'0 0.0
2016-Feb-07 02:30N 35°39' E 139°46'0 0.0
2016-Feb-07 01:33N 35°39' E 139°46'0 0.0
2016-Feb-07 00:33N 35°39' E 139°46'0 0.0
2016-Feb-06 23:30N 35°39' E 139°46'3 2.8
2016-Feb-06 22:32N 35°36' E 139°47'3 2.6
2016-Feb-06 21:33N 35°34' E 139°49'4 4.1
2016-Feb-06 20:33N 35°38' E 139°46'1 1.2
2016-Feb-06 19:33N 35°39' E 139°46'0 0.0
2016-Feb-06 18:33N 35°39' E 139°46'0 0.0
2016-Feb-06 17:27N 35°39' E 139°46'0 0.0
2016-Feb-06 16:33N 35°39' E 139°46'0 0.0
2016-Feb-06 15:33N 35°39' E 139°46'0 0.0
2016-Feb-06 14:33N 35°39' E 139°46'0 0.0
2016-Feb-06 13:27N 35°39' E 139°46'0 0.0
2016-Feb-06 12:33N 35°39' E 139°46'0 0.0
2016-Feb-06 11:33N 35°39' E 139°46'0 0.0
2016-Feb-06 10:33N 35°39' E 139°46'0 0.0
2016-Feb-06 09:30N 35°39' E 139°46'0 0.0
2016-Feb-06 08:33N 35°39' E 139°46'3 3.1
2016-Feb-06 07:33N 35°36' E 139°46'3 3.0
2016-Feb-06 06:33N 35°39' E 139°46'0 0.0
2016-Feb-06 05:18N 35°39' E 139°46'0 0.0
2016-Feb-06 04:30N 35°39' E 139°46'0 0.0
2016-Feb-06 03:21N 35°39' E 139°46'2 2.3
2016-Feb-06 02:33N 35°37' E 139°46'1 1.3
2016-Feb-06 01:33N 35°36' E 139°47'1 1.3
2016-Feb-06 00:33N 35°37' E 139°46'2 1.7
2016-Feb-05 23:28N 35°39' E 139°46'0 0.0
2016-Feb-05 22:25N 35°39' E 139°46'0 0.0
2016-Feb-05 21:28N 35°39' E 139°46'0 0.0
2016-Feb-05 20:31N 35°39' E 139°46'0 0.0
2016-Feb-05 19:28N 35°39' E 139°46'0 0.0
2016-Feb-05 18:22N 35°39' E 139°46'0 0.0
2016-Feb-05 17:28N 35°39' E 139°46'0 0.0
2016-Feb-05 16:31N 35°39' E 139°46'0 0.0
2016-Feb-05 15:25N 35°39' E 139°46'0 0.0
2016-Feb-05 14:31N 35°39' E 139°46'0 0.0
2016-Feb-05 13:31N 35°39' E 139°46'2 2.5
2016-Feb-05 12:33N 35°36' E 139°47'1 1.0
2016-Feb-05 11:33N 35°36' E 139°48'0 0.0
2016-Feb-05 10:27N 35°36' E 139°48'0 0.0
2016-Feb-05 09:33N 35°36' E 139°48'1 1.4
2016-Feb-05 08:33N 35°36' E 139°46'1 0.8
2016-Feb-05 07:33N 35°36' E 139°47'3 2.8
2016-Feb-05 06:33N 35°39' E 139°46'0 0.0
2016-Feb-05 05:33N 35°39' E 139°46'0 0.0
2016-Feb-05 04:31N 35°39' E 139°46'0 0.0
2016-Feb-05 03:31N 35°39' E 139°46'0 0.0
2016-Feb-05 02:25N 35°39' E 139°46'0 0.0
2016-Feb-05 01:31N 35°39' E 139°46'0 0.0
2016-Feb-05 00:31N 35°39' E 139°46'0 0.0
2016-Feb-04 23:31N 35°39' E 139°46'0 0.0
2016-Feb-04 22:31N 35°39' E 139°46'0 0.0
2016-Feb-04 21:28N 35°39' E 139°46'0 0.0
2016-Feb-04 20:31N 35°39' E 139°46'0 0.0
2016-Feb-04 19:31N 35°39' E 139°46'0 0.0
2016-Feb-04 18:31N 35°39' E 139°46'0 0.0
2016-Feb-04 17:31N 35°39' E 139°46'0 0.0
2016-Feb-04 16:31N 35°39' E 139°46'0 0.0
2016-Feb-04 15:31N 35°39' E 139°46'0 0.0
2016-Feb-04 14:31N 35°39' E 139°46'0 0.0
2016-Feb-04 13:31N 35°39' E 139°46'0 0.0
2016-Feb-04 12:19N 35°39' E 139°46'0 0.0
2016-Feb-04 11:31N 35°39' E 139°46'0 0.0
2016-Feb-04 10:31N 35°39' E 139°46'2 1.7
2016-Feb-04 09:33N 35°37' E 139°46'3 3.4
2016-Feb-04 08:33N 35°35' E 139°48'5 4.4
2016-Feb-04 07:29N 35°39' E 139°46'0 0.0
2016-Feb-04 06:32N 35°39' E 139°46'0 0.0
2016-Feb-04 05:26N 35°39' E 139°46'0 0.0
2016-Feb-04 04:32N 35°39' E 139°46'2 2.2
2016-Feb-04 03:32N 35°37' E 139°46'0 0.1
2016-Feb-04 02:33N 35°37' E 139°46'0 0.4
2016-Feb-04 01:33N 35°37' E 139°46'2 1.8
2016-Feb-04 00:29N 35°39' E 139°46'0 0.0
2016-Feb-03 23:29N 35°39' E 139°46'0 0.0
2016-Feb-03 22:29N 35°39' E 139°46'0 0.0
2016-Feb-03 21:32N 35°39' E 139°46'0 0.0
2016-Feb-03 20:32N 35°39' E 139°46'0 0.0
2016-Feb-03 19:32N 35°39' E 139°46'0 0.0
2016-Feb-03 18:32N 35°39' E 139°46'0 0.0
2016-Feb-03 17:32N 35°39' E 139°46'0 0.0
2016-Feb-03 16:32N 35°39' E 139°46'0 0.0
2016-Feb-03 15:32N 35°39' E 139°46'0 0.0
2016-Feb-03 14:23N 35°39' E 139°46'0 0.0
2016-Feb-03 13:29N 35°39' E 139°46'0 0.0
2016-Feb-03 12:29N 35°39' E 139°46'0 0.0
2016-Feb-03 11:32N 35°39' E 139°46'0 0.0
2016-Feb-03 10:32N 35°39' E 139°46'0 0.0
2016-Feb-03 09:29N 35°39' E 139°46'0 0.0
2016-Feb-03 08:29N 35°39' E 139°46'0 0.0
2016-Feb-03 07:32N 35°39' E 139°46'0 0.0
2016-Feb-03 06:29N 35°39' E 139°46'0 0.0
2016-Feb-03 05:29N 35°39' E 139°46'0 0.0
2016-Feb-03 04:05N 35°39' E 139°46'0 0.0
2016-Feb-03 03:32N 35°39' E 139°46'0 0.0
2016-Feb-03 02:29N 35°39' E 139°46'0 0.0
2016-Feb-03 01:32N 35°39' E 139°46'0 0.0
2016-Feb-03 00:32N 35°39' E 139°46'0 0.0
2016-Feb-02 23:33N 35°39' E 139°46'4 4.3
2016-Feb-02 22:33N 35°35' E 139°48'1 1.1
2016-Feb-02 21:31N 35°35' E 139°47'1 1.4
2016-Feb-02 20:33N 35°37' E 139°46'2 1.5
2016-Feb-02 19:33N 35°38' E 139°46'1 1.0
2016-Feb-02 18:33N 35°37' E 139°46'2 1.6
2016-Feb-02 17:28N 35°39' E 139°46'0 0.0
2016-Feb-02 16:25N 35°39' E 139°46'0 0.0
2016-Feb-02 15:31N 35°39' E 139°46'0 0.0
2016-Feb-02 14:31N 35°39' E 139°46'0 0.0
2016-Feb-02 13:31N 35°39' E 139°46'0 0.0
2016-Feb-02 12:31N 35°39' E 139°46'  

Dump ship's entire track history